Time;durP1;ratioP1;P1;durP2;ratioP2;P2;SDS_P1;SDS_P2;PMS_P1;PMS_P2;Temp;Humidity;BMP_temperature;BMP_pressure;BME280_temperature;BME280_humidity;BME280_pressure;Samples;Min_cycle;Max_cycle;Signal;HPM_P1;HPM_P2
2022/02/25 00:00:20;;;;;;;3.13;0.90;;;3.50;96.50;;;;;;5008986;28;20045;-76
2022/02/25 00:02:47;;;;;;;3.28;1.10;;;3.50;96.80;;;;;;5009930;28;20398;-77
2022/02/25 00:05:13;;;;;;;1.10;0.98;;;3.50;96.80;;;;;;4990993;28;20053;-76
2022/02/25 00:07:39;;;;;;;2.30;1.60;;;3.60;97.20;;;;;;5009932;28;20065;-76
2022/02/25 00:10:06;;;;;;;2.10;1.23;;;3.60;97.00;;;;;;5010457;28;20046;-75
2022/02/25 00:12:33;;;;;;;1.98;1.20;;;3.60;96.90;;;;;;5008951;28;20046;-76
2022/02/25 00:15:00;;;;;;;2.15;0.70;;;3.60;97.00;;;;;;5009572;28;20057;-77
2022/02/25 00:17:26;;;;;;;2.53;1.27;;;3.70;96.30;;;;;;5009260;28;20042;-76
2022/02/25 00:19:52;;;;;;;3.17;1.08;;;3.80;96.10;;;;;;5009676;28;20056;-76
2022/02/25 00:22:19;;;;;;;6.55;1.08;;;3.80;95.10;;;;;;5008877;28;20034;-76
2022/02/25 00:24:45;;;;;;;3.40;1.05;;;3.90;94.00;;;;;;5009514;28;20030;-77
2022/02/25 00:27:11;;;;;;;2.50;1.02;;;4.10;93.10;;;;;;5008923;28;20038;-76
2022/02/25 00:29:37;;;;;;;1.95;1.10;;;4.20;92.80;;;;;;4991412;28;20038;-76
2022/02/25 00:32:03;;;;;;;2.85;1.55;;;4.10;92.60;;;;;;5009368;28;20034;-76
2022/02/25 00:34:30;;;;;;;5.03;1.77;;;4.10;93.60;;;;;;5008450;28;20423;-77
2022/02/25 00:36:56;;;;;;;7.05;2.22;;;4.00;92.80;;;;;;5009436;28;20046;-77
2022/02/25 00:39:22;;;;;;;1.58;0.63;;;4.20;92.00;;;;;;5008517;28;20421;-76
2022/02/25 00:41:48;;;;;;;7.15;1.55;;;4.10;92.70;;;;;;4991757;28;20038;-76
2022/02/25 00:44:14;;;;;;;1.58;1.08;;;3.90;93.30;;;;;;5008356;28;20092;-77
2022/02/25 00:46:41;;;;;;;1.25;0.82;;;3.70;93.80;;;;;;5009471;28;20044;-76
2022/02/25 00:49:07;;;;;;;4.07;1.35;;;3.90;92.30;;;;;;5009424;28;20025;-77
2022/02/25 00:51:33;;;;;;;4.10;1.10;;;3.90;92.40;;;;;;5008785;28;20085;-76
2022/02/25 00:53:59;;;;;;;1.75;0.80;;;3.90;92.90;;;;;;5009393;28;20030;-76
2022/02/25 00:56:25;;;;;;;1.27;0.50;;;3.70;93.60;;;;;;5008178;28;20034;-76
2022/02/25 00:58:55;;;;;;;2.50;1.10;;;3.70;93.30;;;;;;5009092;28;20494;-76
2022/02/25 01:01:21;;;;;;;3.85;1.30;;;3.60;93.30;;;;;;5008504;28;20030;-76
2022/02/25 01:03:47;;;;;;;2.90;1.20;;;3.80;93.10;;;;;;5009036;28;20034;-76
2022/02/25 01:06:14;;;;;;;3.75;1.45;;;3.70;93.30;;;;;;5007368;28;20046;-75
2022/02/25 01:08:41;;;;;;;2.53;1.00;;;3.70;93.00;;;;;;4992654;28;20049;-77
2022/02/25 01:11:07;;;;;;;5.63;1.10;;;3.60;93.60;;;;;;5009195;28;20041;-76
2022/02/25 01:13:33;;;;;;;1.48;0.90;;;3.50;93.90;;;;;;5008363;28;20467;-76
2022/02/25 01:15:59;;;;;;;3.75;1.15;;;3.50;94.20;;;;;;5007934;28;20054;-76
2022/02/25 01:18:25;;;;;;;1.63;0.85;;;3.30;94.30;;;;;;5008039;28;20041;-76
2022/02/25 01:20:52;;;;;;;3.65;1.02;;;3.30;94.00;;;;;;5008821;28;20386;-76
2022/02/25 01:23:18;;;;;;;2.17;1.27;;;3.30;94.80;;;;;;5007996;28;20041;-76
2022/02/25 01:25:44;;;;;;;2.65;0.93;;;3.30;94.00;;;;;;5009038;28;20470;-76
2022/02/25 01:28:10;;;;;;;3.13;1.30;;;3.20;94.50;;;;;;5008527;28;20048;-74
2022/02/25 01:30:36;;;;;;;2.90;0.88;;;3.20;94.40;;;;;;5008500;28;20485;-76
2022/02/25 01:33:03;;;;;;;2.38;1.00;;;3.20;94.00;;;;;;5008633;28;20041;-76
2022/02/25 01:35:29;;;;;;;1.98;0.80;;;3.20;93.90;;;;;;5007951;28;20034;-77
2022/02/25 01:37:55;;;;;;;5.00;1.25;;;3.20;93.80;;;;;;5008413;28;20042;-77
2022/02/25 01:40:22;;;;;;;3.30;0.82;;;3.20;93.40;;;;;;5010644;28;20055;-76
2022/02/25 01:42:51;;;;;;;3.08;0.93;;;3.10;93.90;;;;;;5012016;28;20041;-76
2022/02/25 01:45:18;;;;;;;2.03;0.82;;;3.10;94.20;;;;;;5011592;28;20026;-76
2022/02/25 01:47:45;;;;;;;1.40;0.85;;;3.10;93.60;;;;;;4994005;28;20054;-76
2022/02/25 01:50:12;;;;;;;5.10;1.95;;;3.20;93.20;;;;;;5011627;28;20030;-74
2022/02/25 01:53:20;;;;;;;4.40;1.35;;;3.40;91.90;;;;;;5011429;28;20030;-76
2022/02/25 01:55:47;;;;;;;2.45;1.00;;;3.40;92.40;;;;;;5015864;28;20053;-77
2022/02/25 01:58:15;;;;;;;2.85;0.90;;;3.30;92.30;;;;;;4995309;28;20471;-73
2022/02/25 02:00:43;;;;;;;4.82;1.48;;;3.30;92.30;;;;;;5011486;28;20049;-76
2022/02/25 02:03:09;;;;;;;2.25;1.17;;;3.20;92.60;;;;;;5011881;28;20166;-76
2022/02/25 02:05:37;;;;;;;3.75;1.27;;;3.30;92.60;;;;;;5011066;28;20034;-76
2022/02/25 02:08:03;;;;;;;3.30;1.23;;;3.40;91.70;;;;;;4993675;28;20045;-76
2022/02/25 02:10:30;;;;;;;3.53;1.30;;;3.30;92.00;;;;;;5010789;28;20038;-76
2022/02/25 02:12:56;;;;;;;12.18;1.73;;;3.40;91.80;;;;;;5012649;28;20045;-76
2022/02/25 02:15:22;;;;;;;3.47;1.05;;;3.30;92.40;;;;;;5010514;28;20053;-76
2022/02/25 02:17:48;;;;;;;2.72;1.00;;;3.20;92.20;;;;;;5011439;28;20053;-76
2022/02/25 02:20:15;;;;;;;3.22;1.15;;;3.30;91.70;;;;;;5011399;28;20038;-74
2022/02/25 02:22:41;;;;;;;6.70;1.35;;;3.20;91.80;;;;;;5011305;28;20034;-76
2022/02/25 02:25:07;;;;;;;5.95;1.52;;;3.30;91.80;;;;;;5012663;28;20053;-77
2022/02/25 02:30:20;;;;;;;2.00;1.20;;;3.20;92.20;;;;;;5010937;28;20037;-76
2022/02/25 02:32:47;;;;;;;16.80;1.70;;;3.20;92.10;;;;;;5012853;28;20046;-77
2022/02/25 02:35:14;;;;;;;5.35;1.50;;;3.20;92.80;;;;;;5012230;28;20494;-76
2022/02/25 02:37:40;;;;;;;3.55;1.92;;;3.10;93.10;;;;;;5011383;28;20503;-76
2022/02/25 02:40:07;;;;;;;19.48;2.38;;;2.90;93.50;;;;;;4997037;28;20030;-76
2022/02/25 02:42:33;;;;;;;5.82;1.75;;;3.00;93.50;;;;;;5012490;28;20057;-75
2022/02/25 02:44:59;;;;;;;3.85;1.45;;;2.90;93.80;;;;;;5012354;28;20127;-76
2022/02/25 02:47:25;;;;;;;11.70;2.38;;;2.90;94.20;;;;;;5013785;28;20467;-75
2022/02/25 02:49:52;;;;;;;8.90;2.00;;;2.90;94.30;;;;;;5012368;28;20045;-76
2022/02/25 02:52:18;;;;;;;6.13;1.90;;;3.00;94.00;;;;;;5009819;28;20463;-74
2022/02/25 02:54:44;;;;;;;3.80;1.35;;;2.90;94.30;;;;;;5011312;28;20049;-77
2022/02/25 02:57:10;;;;;;;5.25;1.15;;;3.00;93.80;;;;;;5010957;28;20367;-76
2022/02/25 02:59:37;;;;;;;3.25;1.80;;;3.10;93.70;;;;;;4992833;28;20616;-76
2022/02/25 03:02:03;;;;;;;1.85;1.27;;;3.10;93.70;;;;;;5011082;28;20041;-76
2022/02/25 03:04:30;;;;;;;5.00;2.35;;;3.00;93.90;;;;;;5010222;28;20454;-76
2022/02/25 03:06:56;;;;;;;5.35;1.90;;;3.00;94.00;;;;;;5010135;28;20058;-76
2022/02/25 03:09:22;;;;;;;6.82;1.77;;;3.00;94.20;;;;;;5010132;28;20034;-76
2022/02/25 03:11:51;;;;;;;4.07;2.00;;;2.90;94.70;;;;;;4993461;28;20045;-76
2022/02/25 03:14:17;;;;;;;5.70;2.13;;;2.90;94.60;;;;;;5010620;28;20465;-74
2022/02/25 03:16:43;;;;;;;4.45;2.63;;;2.80;95.30;;;;;;5010169;28;20046;-77
2022/02/25 03:19:09;;;;;;;3.53;1.88;;;2.80;95.30;;;;;;5010698;28;20057;-76
2022/02/25 03:21:35;;;;;;;5.38;1.95;;;2.70;95.50;;;;;;5009984;28;20045;-76
2022/02/25 03:24:02;;;;;;;13.35;4.05;;;2.70;95.90;;;;;;5010884;28;20370;-76
2022/02/25 03:26:29;;;;;;;4.35;2.17;;;2.60;96.40;;;;;;5010675;28;20061;-76
2022/02/25 03:28:55;;;;;;;6.78;2.42;;;2.50;96.90;;;;;;5010891;28;20030;-76
2022/02/25 03:31:21;;;;;;;4.78;1.90;;;2.50;97.30;;;;;;5009975;28;20029;-75
2022/02/25 03:33:48;;;;;;;6.53;4.13;;;2.60;97.30;;;;;;5010627;28;20034;-76
2022/02/25 03:36:14;;;;;;;6.07;3.53;;;2.60;97.50;;;;;;5010755;28;20371;-76
2022/02/25 03:38:40;;;;;;;14.32;9.68;;;2.50;97.70;;;;;;5010122;28;20053;-76
2022/02/25 03:41:06;;;;;;;9.07;4.38;;;2.50;97.80;;;;;;5018063;28;20034;-76
2022/02/25 03:43:32;;;;;;;6.47;3.33;;;2.50;98.50;;;;;;5011189;28;20038;-75
2022/02/25 03:45:58;;;;;;;5.68;2.47;;;2.40;99.10;;;;;;5011022;28;20406;-76
2022/02/25 03:48:25;;;;;;;5.25;2.40;;;2.40;99.60;;;;;;4992411;28;20081;-76
2022/02/25 03:50:51;;;;;;;8.52;3.28;;;2.30;99.80;;;;;;4993877;28;20049;-76
2022/02/25 03:53:17;;;;;;;6.57;2.78;;;2.30;99.90;;;;;;5010188;28;20030;-76
2022/02/25 03:55:43;;;;;;;8.90;3.00;;;2.30;99.90;;;;;;5009332;28;20034;-76
2022/02/25 03:58:10;;;;;;;14.05;2.08;;;2.30;99.90;;;;;;5010104;28;20479;-76
2022/02/25 04:00:36;;;;;;;4.75;2.92;;;2.30;99.90;;;;;;5009614;28;20042;-76
2022/02/25 04:03:03;;;;;;;6.70;2.83;;;2.30;99.90;;;;;;5010384;28;20374;-76
2022/02/25 04:05:30;;;;;;;7.07;2.45;;;2.30;99.90;;;;;;5009156;28;20057;-76
2022/02/25 04:07:56;;;;;;;17.40;3.17;;;2.40;99.90;;;;;;5010130;28;20459;-76
2022/02/25 04:10:22;;;;;;;12.50;3.00;;;2.40;99.90;;;;;;5009445;28;20030;-74
2022/02/25 04:12:49;;;;;;;4.32;2.47;;;2.40;99.90;;;;;;5009933;28;20034;-76
2022/02/25 04:15:16;;;;;;;4.20;2.05;;;2.50;99.70;;;;;;5009938;28;20399;-76
2022/02/25 04:17:43;;;;;;;8.60;2.92;;;2.50;98.80;;;;;;5008867;28;20038;-76
2022/02/25 04:20:10;;;;;;;5.00;2.10;;;2.60;98.30;;;;;;5010085;28;20034;-76
2022/02/25 04:22:36;;;;;;;8.32;2.58;;;2.80;97.10;;;;;;5008944;28;20041;-76
2022/02/25 04:25:03;;;;;;;8.68;2.28;;;2.70;96.70;;;;;;5009641;28;20459;-76
2022/02/25 04:27:29;;;;;;;5.20;2.20;;;2.80;96.70;;;;;;5008926;28;20371;-76
2022/02/25 04:29:56;;;;;;;7.05;2.30;;;2.80;96.40;;;;;;5009784;28;20045;-76
2022/02/25 04:32:22;;;;;;;7.80;2.85;;;2.60;96.70;;;;;;5008548;28;20053;-74
2022/02/25 04:34:48;;;;;;;4.07;1.85;;;2.70;96.70;;;;;;4992824;28;20042;-76
2022/02/25 04:37:15;;;;;;;5.82;1.98;;;2.60;96.80;;;;;;5009856;28;20038;-76
2022/02/25 04:39:41;;;;;;;10.20;2.30;;;2.60;96.60;;;;;;5008891;28;20520;-76
2022/02/25 04:42:07;;;;;;;5.53;2.40;;;2.70;96.50;;;;;;5009780;28;20041;-76
2022/02/25 04:44:33;;;;;;;4.97;2.47;;;2.60;95.90;;;;;;5009161;28;20041;-76
2022/02/25 04:47:00;;;;;;;2.70;1.75;;;2.60;96.30;;;;;;5009460;28;20478;-76
2022/02/25 04:49:26;;;;;;;9.63;2.42;;;2.60;95.90;;;;;;5009097;28;20034;-74
2022/02/25 04:51:52;;;;;;;17.48;2.90;;;2.50;96.40;;;;;;5009540;28;20360;-75
2022/02/25 04:54:18;;;;;;;6.55;2.33;;;2.40;96.70;;;;;;4992846;28;20046;-75
2022/02/25 04:56:44;;;;;;;7.85;2.30;;;2.40;96.70;;;;;;5009513;28;20046;-76
2022/02/25 04:59:11;;;;;;;7.70;2.10;;;2.40;96.20;;;;;;5009430;28;20030;-76
2022/02/25 05:01:37;;;;;;;11.07;2.63;;;2.30;96.60;;;;;;5008877;28;20048;-75
2022/02/25 05:04:03;;;;;;;4.57;2.17;;;2.20;97.10;;;;;;5009489;28;20034;-76
2022/02/25 05:06:29;;;;;;;5.72;2.38;;;2.20;97.20;;;;;;4991306;28;20042;-75
2022/02/25 05:08:56;;;;;;;8.90;2.88;;;2.10;97.40;;;;;;5009090;28;20402;-76
2022/02/25 05:11:22;;;;;;;4.88;2.22;;;2.10;97.30;;;;;;4992751;28;20038;-76
2022/02/25 05:13:48;;;;;;;3.78;2.20;;;2.10;96.70;;;;;;5008570;28;20455;-76
2022/02/25 05:21:44;;;;;;;11.68;4.90;;;1.90;97.70;;;;;;5011667;28;20467;-74
2022/02/25 05:24:10;;;;;;;10.70;6.43;;;1.90;97.80;;;;;;5012568;28;20038;-74
2022/02/25 05:26:36;;;;;;;7.63;3.28;;;1.90;97.90;;;;;;5012091;28;20037;-75
2022/02/25 05:29:02;;;;;;;5.88;2.72;;;1.90;97.80;;;;;;5012128;28;20427;-76
2022/02/25 05:31:29;;;;;;;11.52;2.55;;;1.90;98.00;;;;;;5012222;28;20029;-74
2022/02/25 05:33:55;;;;;;;11.68;2.63;;;1.90;97.90;;;;;;4980418;28;20053;-74
2022/02/25 05:36:21;;;;;;;9.00;2.25;;;1.90;97.80;;;;;;5012186;28;20045;-76
2022/02/25 05:38:50;;;;;;;6.38;2.88;;;2.10;97.80;;;;;;5011224;28;20030;-76
2022/02/25 05:41:17;;;;;;;3.47;1.90;;;2.10;97.70;;;;;;5012046;28;20029;-76
2022/02/25 05:43:43;;;;;;;4.43;2.25;;;2.20;97.50;;;;;;5011435;28;20034;-74
2022/02/25 05:46:10;;;;;;;9.07;2.58;;;2.20;97.20;;;;;;5012824;28;20034;-75
2022/02/25 05:48:36;;;;;;;9.02;2.45;;;2.20;97.00;;;;;;4995418;28;20045;-77
2022/02/25 05:51:05;;;;;;;6.45;2.45;;;2.30;96.60;;;;;;5012802;28;20041;-76
2022/02/25 05:53:31;;;;;;;2.58;1.80;;;2.30;96.30;;;;;;5011637;28;20041;-75
2022/02/25 05:55:58;;;;;;;9.98;2.38;;;2.30;96.60;;;;;;5012321;28;20030;-77
2022/02/25 05:58:24;;;;;;;5.75;2.58;;;2.30;96.60;;;;;;5014116;28;20038;-76
2022/02/25 06:00:50;;;;;;;9.88;4.45;;;2.30;96.80;;;;;;4994493;28;20046;-77
2022/02/25 06:03:17;;;;;;;10.65;6.05;;;2.20;97.10;;;;;;5014144;28;20038;-77
2022/02/25 06:05:43;;;;;;;4.38;3.08;;;2.20;97.70;;;;;;5010594;28;20026;-77
2022/02/25 06:08:09;;;;;;;11.88;7.68;;;2.10;98.40;;;;;;5013567;28;20053;-77
2022/02/25 06:10:35;;;;;;;6.72;3.08;;;2.00;98.90;;;;;;5011131;28;20037;-76
2022/02/25 06:13:02;;;;;;;10.35;9.35;;;2.00;99.90;;;;;;5016959;28;20498;-77
2022/02/25 06:15:28;;;;;;;7.65;3.15;;;1.90;99.90;;;;;;5010055;28;20065;-76
2022/02/25 06:17:54;;;;;;;16.52;9.00;;;1.90;99.90;;;;;;5010146;28;20056;-78
2022/02/25 06:20:21;;;;;;;17.02;11.02;;;1.90;99.90;;;;;;5011223;28;20045;-77
2022/02/25 06:22:48;;;;;;;15.05;7.75;;;1.80;99.90;;;;;;5008486;28;20041;-77
2022/02/25 06:25:15;;;;;;;5.28;3.20;;;1.80;99.90;;;;;;5009427;28;20037;-77
2022/02/25 06:27:41;;;;;;;9.60;2.83;;;1.80;99.90;;;;;;5010631;28;20364;-77
2022/02/25 06:30:09;;;;;;;9.70;3.40;;;1.80;99.90;;;;;;5011415;28;20026;-78
2022/02/25 06:32:36;;;;;;;21.45;7.72;;;1.90;99.90;;;;;;4993606;28;20041;-77
2022/02/25 06:35:02;;;;;;;13.05;5.50;;;2.00;99.90;;;;;;5011397;28;20026;-77
2022/02/25 06:37:29;;;;;;;5.45;3.58;;;1.90;99.90;;;;;;5011596;28;20034;-74
2022/02/25 06:39:56;;;;;;;6.25;3.13;;;2.00;99.90;;;;;;5011856;28;20034;-77
2022/02/25 06:42:22;;;;;;;9.30;3.22;;;1.90;99.90;;;;;;5055397;28;20461;-78
2022/02/25 06:44:50;;;;;;;6.65;3.60;;;1.90;99.90;;;;;;5073301;28;20026;-77
2022/02/25 06:47:17;;;;;;;10.88;3.72;;;1.90;99.90;;;;;;5011442;28;20045;-78
2022/02/25 06:49:44;;;;;;;6.22;3.80;;;2.00;99.90;;;;;;4993743;28;20482;-78
2022/02/25 06:52:10;;;;;;;17.23;4.47;;;2.00;99.90;;;;;;4994091;28;20104;-78
2022/02/25 06:54:36;;;;;;;18.70;3.33;;;2.00;99.90;;;;;;5010903;28;20037;-77
2022/02/25 06:57:03;;;;;;;5.65;3.78;;;2.10;99.90;;;;;;4994954;28;20034;-78
2022/02/25 06:59:29;;;;;;;7.40;2.78;;;2.10;99.90;;;;;;5012553;28;20046;-75
2022/02/25 07:01:55;;;;;;;12.32;5.78;;;2.10;99.90;;;;;;5012652;28;20037;-77
2022/02/25 07:04:22;;;;;;;6.07;3.03;;;2.00;99.90;;;;;;5022349;28;20036;-77
2022/02/25 07:06:48;;;;;;;8.07;2.20;;;2.10;99.90;;;;;;5022428;28;20034;-79
2022/02/25 07:09:15;;;;;;;5.38;2.97;;;2.10;99.90;;;;;;5016052;28;20029;-77
2022/02/25 07:11:42;;;;;;;7.80;2.78;;;2.20;99.90;;;;;;5025309;28;20400;-75
2022/02/25 07:14:09;;;;;;;12.40;3.45;;;2.20;99.90;;;;;;5096831;28;20035;-76
2022/02/25 07:16:35;;;;;;;4.78;2.50;;;2.40;99.90;;;;;;5113931;28;20052;-76
2022/02/25 07:19:02;;;;;;;7.50;2.80;;;2.80;99.30;;;;;;5114811;28;20388;-76
2022/02/25 07:21:28;;;;;;;10.20;2.17;;;3.10;97.40;;;;;;5048843;28;20037;-75
2022/02/25 07:23:54;;;;;;;11.07;3.35;;;3.50;95.60;;;;;;5011175;28;20034;-76
2022/02/25 07:26:21;;;;;;;5.63;2.67;;;3.50;94.70;;;;;;5011040;28;20087;-76
2022/02/25 07:28:47;;;;;;;6.47;2.53;;;3.60;94.40;;;;;;5010876;28;20383;-76
2022/02/25 07:31:14;;;;;;;8.07;2.47;;;3.70;93.20;;;;;;5010901;28;20036;-76
2022/02/25 07:33:41;;;;;;;5.07;2.50;;;3.80;92.80;;;;;;5010365;28;20165;-76
2022/02/25 07:36:07;;;;;;;6.38;2.45;;;3.90;92.60;;;;;;5010830;28;20030;-75
2022/02/25 07:38:33;;;;;;;5.75;2.15;;;4.00;92.10;;;;;;5010610;28;20049;-76
2022/02/25 07:41:00;;;;;;;12.10;2.85;;;4.20;92.10;;;;;;5010215;28;20026;-76
2022/02/25 07:43:26;;;;;;;4.63;2.08;;;4.40;90.80;;;;;;5099830;28;20034;-77
2022/02/25 07:45:52;;;;;;;7.50;2.50;;;4.50;89.80;;;;;;5113336;28;20437;-77
2022/02/25 07:48:20;;;;;;;3.58;2.03;;;4.50;90.50;;;;;;5045579;28;20049;-77
2022/02/25 07:50:47;;;;;;;7.25;2.75;;;4.80;89.40;;;;;;5009844;28;20034;-77
2022/02/25 07:53:16;;;;;;;15.40;7.50;;;5.10;88.40;;;;;;5010465;28;20037;-76
2022/02/25 07:55:42;;;;;;;6.45;2.47;;;5.30;85.80;;;;;;5045048;28;20046;-76
2022/02/25 07:58:09;;;;;;;6.78;2.85;;;5.40;83.90;;;;;;5113235;28;20036;-77
2022/02/25 08:00:35;;;;;;;8.07;2.13;;;5.40;84.10;;;;;;5113344;28;20031;-78
2022/02/25 08:03:02;;;;;;;7.97;2.15;;;5.40;83.70;;;;;;5112990;28;20032;-77
2022/02/25 08:05:30;;;;;;;5.38;2.00;;;5.50;82.90;;;;;;5029455;28;20060;-75
2022/02/25 08:08:02;;;;;;;11.75;3.10;;;5.60;80.80;;;;;;5010415;28;20061;-77
2022/02/25 08:10:28;;;;;;;8.40;2.10;;;5.80;81.20;;;;;;4992676;28;20041;-77
2022/02/25 08:12:55;;;;;;;6.78;2.50;;;6.10;80.00;;;;;;5010094;28;20033;-76
2022/02/25 08:15:21;;;;;;;6.45;2.83;;;6.20;78.90;;;;;;5010058;28;20046;-76
2022/02/25 08:17:47;;;;;;;5.25;2.17;;;6.20;78.70;;;;;;5009178;28;20046;-77
2022/02/25 08:20:14;;;;;;;11.38;2.83;;;6.60;76.20;;;;;;5101400;28;20042;-77
2022/02/25 08:22:40;;;;;;;5.35;1.95;;;7.10;75.90;;;;;;5112582;28;20630;-77
2022/02/25 08:25:07;;;;;;;5.82;3.10;;;7.40;72.20;;;;;;5079235;28;20025;-76
2022/02/25 08:27:35;;;;;;;6.93;2.50;;;7.40;72.60;;;;;;5028699;28;20041;-76
2022/02/25 08:30:05;;;;;;;10.48;2.60;;;7.90;71.30;;;;;;5029199;28;20044;-76
2022/02/25 08:32:31;;;;;;;5.30;1.90;;;8.10;69.70;;;;;;5028933;28;20037;-77
2022/02/25 08:34:57;;;;;;;3.97;2.10;;;8.30;68.80;;;;;;5011650;28;20033;-77
2022/02/25 08:37:24;;;;;;;4.60;2.20;;;8.80;66.30;;;;;;5029460;28;20037;-77
2022/02/25 08:39:50;;;;;;;24.48;3.05;;;9.10;65.90;;;;;;5029268;28;20365;-77
2022/02/25 08:42:16;;;;;;;6.18;2.10;;;9.70;64.40;;;;;;5029689;28;20037;-75
2022/02/25 08:44:43;;;;;;;6.55;3.40;;;9.70;62.30;;;;;;5029258;28;20450;-76
2022/02/25 08:47:09;;;;;;;5.15;2.17;;;9.60;61.50;;;;;;5029519;28;20037;-76
2022/02/25 08:49:36;;;;;;;6.22;2.17;;;9.00;63.30;;;;;;5027655;28;20030;-77
2022/02/25 08:52:02;;;;;;;6.93;3.47;;;9.70;62.20;;;;;;5029268;28;20037;-77
2022/02/25 08:54:28;;;;;;;4.53;2.47;;;10.00;62.10;;;;;;5029144;28;20390;-75
2022/02/25 08:56:54;;;;;;;7.00;2.25;;;10.50;60.10;;;;;;5028846;28;20053;-76
2022/02/25 08:59:21;;;;;;;4.97;2.58;;;10.50;59.00;;;;;;5011419;28;20064;-75
2022/02/25 09:01:47;;;;;;;3.67;1.70;;;10.00;60.90;;;;;;5028904;28;20462;-75
2022/02/25 09:04:13;;;;;;;5.38;2.28;;;9.50;61.40;;;;;;5028934;28;20026;-74
2022/02/25 09:06:40;;;;;;;7.20;2.10;;;10.10;61.50;;;;;;5028368;28;20029;-75
2022/02/25 09:09:06;;;;;;;5.40;1.70;;;10.90;59.00;;;;;;5027945;28;20042;-75
2022/02/25 09:11:32;;;;;;;4.80;2.47;;;10.90;58.00;;;;;;5010590;28;20041;-74
2022/02/25 09:13:59;;;;;;;7.28;2.45;;;11.10;58.10;;;;;;5011973;28;20022;-74
2022/02/25 09:16:25;;;;;;;4.25;1.65;;;11.40;56.20;;;;;;5029480;28;20056;-74
2022/02/25 09:18:51;;;;;;;8.85;1.83;;;11.00;56.50;;;;;;5028532;28;20263;-74
2022/02/25 09:21:17;;;;;;;7.85;2.10;;;10.20;58.80;;;;;;5029202;28;20033;-75
2022/02/25 09:23:44;;;;;;;4.75;1.67;;;10.30;58.90;;;;;;5028973;28;20034;-75
2022/02/25 09:26:10;;;;;;;4.38;2.05;;;9.20;60.80;;;;;;5029410;28;20412;-74
2022/02/25 09:28:36;;;;;;;5.82;1.73;;;8.20;63.30;;;;;;5030059;28;20038;-74
2022/02/25 09:31:03;;;;;;;6.53;2.35;;;7.60;65.50;;;;;;5029416;28;20037;-74
2022/02/25 09:33:29;;;;;;;7.78;2.20;;;8.10;65.40;;;;;;5030881;28;20036;-74
2022/02/25 09:35:55;;;;;;;7.45;2.05;;;8.50;63.70;;;;;;5031017;28;20030;-74
2022/02/25 09:38:21;;;;;;;17.38;2.28;;;9.00;63.40;;;;;;5029315;28;20037;-75
2022/02/25 09:40:48;;;;;;;4.18;1.70;;;8.90;62.80;;;;;;5028260;28;20029;-74
2022/02/25 09:43:14;;;;;;;4.75;2.28;;;8.30;64.30;;;;;;5028920;28;20041;-74
2022/02/25 09:45:40;;;;;;;5.65;2.13;;;8.30;64.60;;;;;;5028514;28;20037;-75
2022/02/25 09:48:10;;;;;;;5.35;2.40;;;8.60;63.80;;;;;;5028982;28;20045;-74
2022/02/25 09:50:38;;;;;;;5.07;2.30;;;7.70;65.60;;;;;;5031222;28;20033;-74
2022/02/25 09:53:04;;;;;;;5.03;2.00;;;7.10;67.70;;;;;;5032543;28;20478;-74
2022/02/25 09:55:33;;;;;;;4.68;2.47;;;7.10;67.90;;;;;;5030223;28;20061;-74
2022/02/25 09:58:04;;;;;;;7.80;2.88;;;6.90;69.20;;;;;;5032102;28;20042;-74
2022/02/25 10:00:33;;;;;;;6.40;2.47;;;6.90;69.60;;;;;;5029633;28;20038;-74
2022/02/25 10:03:02;;;;;;;7.57;2.95;;;7.20;69.30;;;;;;5032301;28;20029;-74
2022/02/25 10:05:30;;;;;;;6.90;3.35;;;7.50;68.50;;;;;;5031739;28;20045;-74
2022/02/25 10:08:11;;;;;;;8.23;2.40;;;7.70;68.80;;;;;;5031284;28;20041;-74
2022/02/25 10:10:57;;;;;;;10.05;3.40;;;7.90;68.20;;;;;;5046636;28;20052;-74
2022/02/25 10:13:26;;;;;;;6.25;2.35;;;8.00;67.50;;;;;;5032013;28;20037;-74
2022/02/25 10:15:54;;;;;;;8.32;2.47;;;8.30;67.10;;;;;;5031331;28;20050;-74
2022/02/25 10:18:34;;;;;;;6.65;3.00;;;8.30;66.60;;;;;;5031577;28;20390;-73
2022/02/25 10:21:13;;;;;;;8.63;2.72;;;8.20;67.20;;;;;;5032195;28;20033;-73
2022/02/25 10:23:47;;;;;;;7.13;3.20;;;8.30;65.80;;;;;;5031494;28;20095;-73
2022/02/25 10:26:20;;;;;;;7.47;2.40;;;8.00;65.10;;;;;;5085631;28;20028;-72
2022/02/25 10:28:54;;;;;;;8.15;2.05;;;8.00;65.60;;;;;;5114970;28;20057;-73
2022/02/25 10:31:26;;;;;;;9.70;3.28;;;8.00;65.10;;;;;;5115679;28;20464;-73
2022/02/25 10:34:11;;;;;;;5.30;2.05;;;8.00;65.20;;;;;;5095785;28;20043;-73
2022/02/25 10:36:44;;;;;;;7.07;2.55;;;8.10;64.60;;;;;;5114307;28;20054;-73
2022/02/25 10:39:13;;;;;;;9.80;2.67;;;8.10;64.60;;;;;;5115332;28;20035;-73
2022/02/25 10:41:40;;;;;;;15.95;2.33;;;8.00;64.60;;;;;;5114428;28;20028;-73
2022/02/25 10:44:07;;;;;;;5.72;1.98;;;8.20;64.60;;;;;;5115080;28;20468;-73
2022/02/25 10:46:33;;;;;;;3.03;1.50;;;8.00;63.60;;;;;;5114981;28;20392;-72
2022/02/25 10:49:07;;;;;;;7.13;2.10;;;7.80;63.80;;;;;;5114734;28;20031;-73
2022/02/25 10:51:36;;;;;;;7.13;2.28;;;7.50;63.80;;;;;;5115093;28;20376;-72
2022/02/25 10:54:04;;;;;;;11.10;2.78;;;7.20;64.40;;;;;;5114617;28;20032;-73
2022/02/25 10:56:45;;;;;;;6.57;2.00;;;7.20;64.60;;;;;;5114361;28;20043;-73
2022/02/25 10:59:12;;;;;;;5.78;2.08;;;7.10;65.40;;;;;;5114608;28;20042;-73
2022/02/25 11:01:39;;;;;;;6.63;2.33;;;7.40;65.30;;;;;;5114008;28;20028;-74
2022/02/25 11:04:09;;;;;;;5.50;1.90;;;7.50;65.30;;;;;;5012625;28;20033;-73
2022/02/25 11:06:35;;;;;;;8.00;2.30;;;7.70;65.20;;;;;;5030710;28;20034;-73
2022/02/25 11:09:04;;;;;;;12.35;3.20;;;7.80;63.90;;;;;;5030875;28;20055;-73
2022/02/25 11:11:33;;;;;;;17.50;2.65;;;7.80;64.10;;;;;;5030916;28;20033;-73
2022/02/25 11:14:03;;;;;;;7.70;2.58;;;7.90;64.00;;;;;;5034323;28;20037;-73
2022/02/25 11:16:31;;;;;;;8.30;2.33;;;7.70;64.70;;;;;;5082085;28;20051;-73
2022/02/25 11:19:01;;;;;;;6.80;2.85;;;7.80;63.90;;;;;;5095452;28;20062;-74
2022/02/25 11:21:28;;;;;;;3.95;1.90;;;7.60;64.00;;;;;;5114336;28;20036;-73
2022/02/25 11:23:55;;;;;;;5.50;2.13;;;7.70;64.60;;;;;;5114020;28;20031;-73
2022/02/25 11:26:21;;;;;;;8.10;2.33;;;7.70;64.60;;;;;;5117860;28;20035;-74
2022/02/25 11:28:48;;;;;;;7.32;1.80;;;7.50;64.60;;;;;;5096203;28;20054;-74
2022/02/25 11:31:30;;;;;;;7.20;2.70;;;7.60;65.10;;;;;;5027126;28;20041;-73
2022/02/25 11:33:58;;;;;;;11.38;2.35;;;7.40;66.30;;;;;;5009823;28;20038;-73
2022/02/25 11:36:40;;;;;;;6.68;2.25;;;7.50;66.50;;;;;;4993212;28;20036;-73
2022/02/25 11:39:27;;;;;;;15.20;2.95;;;7.40;65.60;;;;;;5010369;28;20038;-73
2022/02/25 11:41:58;;;;;;;5.85;2.15;;;7.10;67.00;;;;;;5010064;28;20030;-73
2022/02/25 11:44:25;;;;;;;2.55;1.65;;;7.10;67.10;;;;;;5010511;28;20034;-74
2022/02/25 11:46:53;;;;;;;5.57;2.33;;;7.10;67.20;;;;;;4992498;28;20489;-73
2022/02/25 11:49:24;;;;;;;6.38;2.30;;;7.00;68.00;;;;;;5009871;28;20052;-73
2022/02/25 11:51:54;;;;;;;6.00;2.63;;;6.80;67.60;;;;;;4989902;28;20026;-73
2022/02/25 11:54:23;;;;;;;7.30;2.33;;;6.70;68.70;;;;;;5010182;28;20041;-73
2022/02/25 11:57:05;;;;;;;5.35;2.35;;;6.80;69.20;;;;;;5009815;28;20042;-72
2022/02/25 11:59:31;;;;;;;;;;;6.90;68.70;;;;;;5010749;28;20042;-72
2022/02/25 12:02:11;;;;;;;7.88;2.67;;;6.80;68.70;;;;;;5010501;28;19919;-72
2022/02/25 12:04:42;;;;;;;6.88;2.60;;;6.70;69.10;;;;;;5009209;28;20059;-73
2022/02/25 12:07:10;;;;;;;;;;;6.80;69.30;;;;;;5010511;28;20038;-72
2022/02/25 12:09:45;;;;;;;7.75;2.78;;;6.90;68.10;;;;;;5009853;28;19909;-72
2022/02/25 12:12:23;;;;;;;5.93;2.42;;;6.80;68.40;;;;;;5010095;28;20042;-72
2022/02/25 12:15:22;;;;;;;7.25;2.60;;;6.80;69.60;;;;;;5008499;28;20038;-72
2022/02/25 12:17:54;;;;;;;8.00;3.25;;;6.80;69.40;;;;;;5008667;28;20049;-72
2022/02/25 12:20:50;;;;;;;6.88;3.10;;;6.70;69.80;;;;;;4992049;28;20052;-72
2022/02/25 12:23:21;;;;;;;6.25;3.00;;;6.70;70.50;;;;;;5006747;28;20041;-72
2022/02/25 12:25:55;;;;;;;10.93;3.45;;;6.50;70.90;;;;;;5056205;28;20031;-72
2022/02/25 12:28:27;;;;;;;6.03;2.05;;;6.40;70.50;;;;;;5112108;28;20032;-72
2022/02/25 12:31:07;;;;;;;5.28;2.33;;;6.30;71.90;;;;;;5111888;28;20032;-72
2022/02/25 12:33:34;;;;;;;11.45;3.25;;;6.40;71.10;;;;;;5112139;28;20027;-72
2022/02/25 12:36:22;;;;;;;8.68;3.42;;;6.30;71.80;;;;;;5111780;28;20027;-72
2022/02/25 12:39:00;;;;;;;7.10;2.60;;;6.40;72.10;;;;;;5093864;28;20500;-71
2022/02/25 12:41:33;;;;;;;7.28;3.38;;;6.50;72.70;;;;;;5110274;28;20039;-72
2022/02/25 12:44:03;;;;;;;5.78;3.17;;;6.60;71.70;;;;;;5009580;28;20056;-72
2022/02/25 12:46:45;;;;;;;8.95;3.03;;;6.70;70.60;;;;;;5008971;28;20041;-72
2022/02/25 12:49:21;;;;;;;7.13;2.92;;;6.90;69.50;;;;;;5009307;28;20034;-72
2022/02/25 12:51:48;;;;;;;9.48;3.50;;;6.90;69.10;;;;;;5006301;28;20169;-73
2022/02/25 12:54:16;;;;;;;7.15;3.13;;;6.70;68.30;;;;;;4998671;28;20049;-73
2022/02/25 12:59:44;;;;;;;8.30;3.90;;;6.90;68.20;;;;;;4326912;23;20109;-73
2022/02/25 13:02:19;;;;;;;9.43;2.63;;;7.10;68.40;;;;;;4967636;28;20055;-72
2022/02/25 13:04:53;;;;;;;7.10;2.72;;;7.10;66.90;;;;;;4962463;28;20031;-72
2022/02/25 13:07:22;;;;;;;7.25;3.03;;;7.00;66.70;;;;;;4972390;28;20059;-74
2022/02/25 13:09:49;;;;;;;12.77;3.53;;;7.10;66.30;;;;;;4973170;28;20391;-72